Latest Weather Observations for Strahan

IDT60801

Issued at 2:05 am EDT Tuesday 25 November 2014 (issued every 30 minutes, with the page automatically refreshed every 10 minutes)

About weather observations | Map of weather stations | Latest weather observations for TAS | Other Formats
Station Details ID: 097072 Name: STRAHAN AERODROME Lat: -42.16 Lon: 145.29 Height: 21.0 m
Data from the previous 72 hours. | See also: Recent months at Strahan
Date/Time
EDT
Temp
°C
App
Temp
°C
Dew
Point
Rel
Hum
%
Delta-T
°C
Wind Press
QNH
hPa
Press
MSL
hPa
Rain
since 9 am
mm
Dir
 
Spd
km/h
Gust
km/h
Spd
kts
Gust
kts
25/02:00am - - - - - W 28 41 15 22 1006.2 1006.2 21.0
25/01:30am - - - - - W 24 35 13 19 1006.1 1006.1 21.0
25/01:12am - - - - - W 35 46 19 25 1006.0 1006.0 21.0
25/01:00am - - - - - W 30 44 16 24 1005.9 1005.9 21.0
25/12:53am - - - - - W 35 44 19 24 1006.0 1006.0 20.6
25/12:52am - - - - - W 37 44 20 24 1006.1 1006.1 20.4
25/12:30am - - - - - WNW 32 43 17 23 1006.0 1006.0 19.4
25/12:00am - - - - - WNW 32 43 17 23 1006.0 1006.0 19.4
 
Date/Time
EDT
Temp
°C
App
Temp
°C
Dew
Point
Rel
Hum
%
Delta-T
°C
Wind Press
QNH
hPa
Press
MSL
hPa
Rain
since 9 am
mm
Dir
 
Spd
km/h
Gust
km/h
Spd
kts
Gust
kts
24/11:30pm - - - - - NW 24 35 13 19 1006.1 1006.1 19.4
24/11:25pm - - - - - WNW 28 43 15 23 1006.2 1006.2 19.4
24/11:07pm - - - - - WNW 32 46 17 25 1006.3 1006.3 19.0
24/11:00pm - - - - - NW 30 39 16 21 1006.2 1006.2 18.6
24/10:30pm - - - - - WNW 33 43 18 23 1006.3 1006.3 18.6
24/10:00pm - - - - - WNW 28 39 15 21 1006.4 1006.4 18.6
24/09:30pm - - - - - WNW 24 37 13 20 1006.3 1006.3 18.6
24/09:00pm - - - - - WNW 26 39 14 21 1006.1 1006.1 18.6
24/08:30pm - - - - - WNW 24 33 13 18 1005.9 1005.9 18.6
24/08:00pm - - - - - WNW 26 41 14 22 1005.4 1005.4 18.6
24/07:30pm - - - - - WNW 20 32 11 17 1005.1 1005.1 18.6
24/07:18pm - - - - - WNW 19 22 10 12 1005.0 1005.0 18.6
24/07:00pm - - - - - NNW 22 39 12 21 1004.9 1004.9 18.4
24/06:56pm - - - - - NNW 19 30 10 16 1004.9 1004.9 16.8
24/06:30pm - - - - - NNW 19 24 10 13 1004.9 1004.9 16.2
24/06:00pm - - - - - NW 20 28 11 15 1004.9 1004.9 16.2
24/05:30pm - - - - - NW 17 22 9 12 1005.1 1005.1 16.2
24/05:00pm - - - - - WNW 15 20 8 11 1004.9 1004.9 16.0
24/04:30pm 8.5 4.8 8.1 97 0.2 WNW 17 24 9 13 1005.0 1005.0 16.0
24/04:28pm 8.4 4.3 8.0 97 0.2 W 19 24 10 13 1004.9 1004.9 15.8
24/04:25pm 8.5 4.5 8.1 97 0.2 W 19 24 10 13 1004.9 1004.9 15.8
24/04:00pm 8.0 3.3 7.6 97 0.2 W 22 35 12 19 1005.1 1005.1 15.2
24/03:30pm 10.0 7.5 9.7 98 0.2 NNW 13 19 7 10 1004.8 1004.8 8.6
24/03:24pm 10.0 6.7 9.7 98 0.2 N 17 24 9 13 1004.6 1004.6 8.2
24/03:14pm 9.9 6.0 9.6 98 0.1 N 20 28 11 15 1004.7 1004.7 7.8
24/03:03pm 9.9 6.2 9.6 98 0.1 N 19 24 10 13 1004.7 1004.7 7.6
24/03:00pm 9.9 6.0 9.6 98 0.2 N 20 26 11 14 1004.8 1004.8 7.6
24/02:30pm 10.0 5.4 9.5 97 0.2 NNW 24 30 13 16 1005.3 1005.3 6.8
24/02:00pm 10.2 5.6 9.6 96 0.3 NNW 24 35 13 19 1005.7 1005.7 5.8
24/01:30pm 10.7 8.6 9.6 93 0.6 NNW 11 15 6 8 1006.0 1006.0 4.4
24/01:18pm 10.7 8.4 9.1 90 0.8 NNW 11 19 6 10 1005.9 1005.9 4.0
24/01:00pm 10.7 7.6 8.8 88 0.9 N 15 20 8 11 1005.9 1005.9 3.8
24/12:30pm 11.0 8.4 9.4 90 0.8 N 13 20 7 11 1006.1 1006.1 3.8
24/12:00pm 10.9 8.5 10.0 94 0.5 NNE 13 19 7 10 1006.4 1006.4 3.8
24/11:30am 10.5 7.7 9.9 96 0.3 N 15 24 8 13 1007.2 1007.2 3.8
24/11:00am 9.8 6.4 9.0 95 0.4 N 17 22 9 12 1007.7 1007.7 3.6
24/10:30am 9.6 7.7 9.0 96 0.3 N 9 13 5 7 1007.8 1007.8 2.6
24/10:00am 9.4 7.0 8.5 94 0.4 NNE 11 17 6 9 1008.0 1008.0 2.0
24/09:30am 9.5 6.3 8.3 92 0.6 N 15 22 8 12 1008.7 1008.7 1.6
24/09:00am 10.1 5.5 8.0 87 1.0 N 22 33 12 18 1008.8 1008.8 0.2
24/08:30am 11.2 6.6 6.3 72 2.3 N 20 33 11 18 1008.2 1008.2 0.0
24/08:00am 11.6 6.7 5.3 65 2.9 N 20 26 11 14 1008.6 1008.6 0.0
24/07:30am 9.9 7.1 5.3 73 2.1 NNE 9 15 5 8 1008.3 1008.3 0.0
24/07:00am 9.0 6.9 5.6 79 1.5 NW 6 6 3 3 1008.7 1008.7 0.0
24/06:30am 8.8 6.3 4.6 75 1.9 N 7 9 4 5 1008.7 1008.7 0.0
24/06:00am 8.4 6.3 4.0 74 1.9 W 4 9 2 5 1008.6 1008.6 0.0
24/05:30am 8.6 5.6 4.2 74 1.9 N 9 13 5 7 1008.5 1008.5 0.0
24/05:00am 8.5 5.1 3.8 72 2.0 NNE 11 15 6 8 1008.6 1008.6 0.0
24/04:30am 8.0 4.1 3.5 73 1.9 NNE 13 19 7 10 1009.0 1009.0 0.0
24/04:00am 7.5 3.6 3.4 75 1.7 NNE 13 17 7 9 1009.0 1009.0 0.0
24/03:30am 7.4 3.1 3.5 76 1.7 NNE 15 20 8 11 1009.5 1009.5 0.0
24/03:00am 7.2 3.7 3.4 77 1.6 NNE 11 17 6 9 1009.7 1009.7 0.0
24/02:30am 7.1 3.6 3.3 77 1.6 N 11 17 6 9 1010.1 1010.1 0.0
24/02:00am 7.5 3.2 3.4 75 1.7 NNE 15 19 8 10 1010.3 1010.3 0.0
24/01:30am 7.5 3.6 3.6 76 1.7 NNE 13 17 7 9 1010.5 1010.5 0.0
24/01:00am 8.0 4.5 3.7 74 1.9 N 11 15 6 8 1010.9 1010.9 0.0
24/12:30am 7.9 4.8 3.6 74 1.8 NNE 9 11 5 6 1011.1 1011.1 0.0
24/12:00am 8.3 5.2 3.6 72 2.0 NNE 9 13 5 7 1011.5 1011.5 0.0
 
Date/Time
EDT
Temp
°C
App
Temp
°C
Dew
Point
Rel
Hum
%
Delta-T
°C
Wind Press
QNH
hPa
Press
MSL
hPa
Rain
since 9 am
mm
Dir
 
Spd
km/h
Gust
km/h
Spd
kts
Gust
kts
23/11:30pm 8.4 4.9 3.5 71 2.1 NNE 11 13 6 7 1011.7 1011.7 0.0
23/11:00pm 9.0 5.5 3.4 68 2.4 NNE 11 15 6 8 1011.9 1011.9 0.0
23/10:30pm 9.6 5.7 3.4 65 2.7 NNE 13 17 7 9 1012.2 1012.2 0.0
23/10:00pm 10.3 7.5 5.3 71 2.3 NNE 9 11 5 6 1012.6 1012.6 0.0
23/09:30pm 11.1 7.7 6.0 71 2.4 N 13 17 7 9 1012.6 1012.6 0.0
23/09:00pm 12.1 8.7 5.7 65 3.0 NNW 13 19 7 10 1012.5 1012.5 0.0
23/08:30pm 12.3 8.3 6.8 69 2.6 NNW 17 20 9 11 1012.7 1012.7 0.0
23/08:00pm 12.7 9.3 7.8 72 2.4 NNW 15 19 8 10 1012.2 1012.2 0.0
23/07:30pm 12.8 9.4 7.5 70 2.6 NNW 15 24 8 13 1012.4 1012.4 0.0
23/07:00pm 13.0 8.6 7.5 69 2.7 NW 20 26 11 14 1012.3 1012.3 0.0
23/06:30pm 13.5 9.1 7.5 67 2.9 NW 20 28 11 15 1012.1 1012.1 0.0
23/06:00pm 13.8 9.5 8.0 68 2.9 NW 20 26 11 14 1011.9 1011.9 0.0
23/05:30pm 15.0 10.2 7.3 60 3.8 NW 22 28 12 15 1011.6 1011.6 0.0
23/05:00pm 15.4 10.6 7.4 59 4.0 NW 22 28 12 15 1011.3 1011.3 0.0
23/04:30pm 14.7 10.3 7.3 61 3.6 NW 20 30 11 16 1011.2 1011.2 0.0
23/04:00pm 14.9 10.3 6.5 57 4.1 NNW 20 26 11 14 1011.1 1011.1 0.0
23/03:30pm 15.4 11.2 8.4 63 3.5 NW 20 28 11 15 1011.3 1011.3 0.0
23/03:00pm 15.6 10.8 8.8 64 3.5 NW 24 32 13 17 1011.4 1011.4 0.0
23/02:30pm 15.2 10.6 8.2 63 3.5 NNW 22 33 12 18 1011.3 1011.3 0.0
23/02:00pm 15.1 9.7 8.1 63 3.5 WNW 26 32 14 17 1011.5 1011.5 0.0
23/01:30pm 15.9 11.3 9.6 66 3.3 NNW 24 33 13 18 1011.5 1011.5 0.0
23/01:00pm 14.8 10.0 8.7 67 3.1 NW 24 33 13 18 1011.6 1011.6 0.0
23/12:30pm 14.5 9.2 8.5 67 3.0 NW 26 35 14 19 1011.7 1011.7 0.0
23/12:00pm 14.8 9.6 8.7 67 3.1 NW 26 32 14 17 1011.5 1011.5 0.0
23/11:30am 15.0 9.8 8.9 67 3.1 NW 26 33 14 18 1011.6 1011.6 0.0
23/11:00am 14.3 8.6 8.5 68 2.9 NW 28 35 15 19 1011.5 1011.5 0.0
23/10:30am 14.3 9.5 8.7 69 2.8 NW 24 32 13 17 1011.3 1011.3 0.0
23/10:00am 14.4 10.0 8.8 69 2.8 NNW 22 32 12 17 1011.2 1011.2 0.0
23/09:30am 13.5 9.0 8.4 71 2.5 NW 22 28 12 15 1011.1 1011.1 0.0
23/09:00am 12.4 7.5 7.1 70 2.6 NW 22 28 12 15 1010.7 1010.7 1.2
23/08:30am 12.0 7.7 7.7 75 2.1 NW 20 26 11 14 1010.2 1010.2 1.2
23/08:00am 11.4 7.7 7.9 79 1.7 WNW 17 22 9 12 1009.9 1009.9 1.2
23/07:30am 10.7 7.4 7.9 83 1.4 NW 15 19 8 10 1009.7 1009.7 1.2
23/07:00am 9.7 6.2 7.3 85 1.1 NW 15 19 8 10 1009.3 1009.3 1.2
23/06:53am 9.7 6.3 7.5 86 1.0 NW 15 19 8 10 1009.2 1009.2 1.2
23/06:31am 9.7 6.7 7.6 87 1.0 NW 13 20 7 11 1009.0 1009.0 1.2
23/06:30am 9.8 6.8 7.7 87 1.0 WNW 13 22 7 12 1009.0 1009.0 1.2
23/06:09am 9.8 6.5 8.1 89 0.8 WNW 15 22 8 12 1008.6 1008.6 1.2
23/06:00am 9.7 6.8 8.0 89 0.8 WNW 13 22 7 12 1008.5 1008.5 1.2
23/05:30am 9.8 7.3 8.2 90 0.8 WNW 11 15 6 8 1008.0 1008.0 1.2
23/05:08am 10.3 7.1 8.4 88 0.9 WNW 15 22 8 12 1007.9 1007.9 1.2
23/05:05am 10.3 7.1 8.4 88 0.9 WNW 15 22 8 12 1007.8 1007.8 1.2
23/05:00am 10.2 6.9 8.1 87 1.0 WNW 15 22 8 12 1007.8 1007.8 1.2
23/04:49am 10.4 6.5 8.5 88 0.9 WNW 19 24 10 13 1007.7 1007.7 1.2
23/04:30am 10.3 7.5 8.6 89 0.8 WNW 13 17 7 9 1007.5 1007.5 1.2
23/04:00am 10.4 6.9 8.7 89 0.8 NW 17 22 9 12 1007.1 1007.1 1.2
23/03:56am 10.4 6.9 8.7 89 0.8 NW 17 22 9 12 1007.0 1007.0 1.2
23/03:30am 10.6 7.7 9.5 93 0.6 WNW 15 20 8 11 1007.1 1007.1 1.2
23/03:00am 10.9 7.8 10.3 96 0.3 NW 17 20 9 11 1007.1 1007.1 1.2
23/02:34am 11.1 8.1 10.5 96 0.3 NW 17 22 9 12 1006.8 1006.8 1.2
23/02:30am 11.1 8.4 10.5 96 0.3 NW 15 22 8 12 1006.8 1006.8 1.2
23/02:17am 10.9 7.2 10.3 96 0.3 WNW 20 28 11 15 1006.8 1006.8 1.2
23/02:00am 11.0 7.4 10.7 98 0.2 WNW 20 28 11 15 1006.6 1006.6 1.2
23/01:30am 11.4 7.6 11.1 98 0.2 WNW 22 30 12 16 1006.6 1006.6 1.2
23/01:00am 11.6 8.7 11.0 96 0.3 NW 17 22 9 12 1006.4 1006.4 1.2
23/12:30am 11.8 8.8 10.7 93 0.6 NNW 17 20 9 11 1006.4 1006.4 0.8
23/12:00am 12.6 9.8 11.2 91 0.7 NNW 17 22 9 12 1006.0 1006.0 0.8
 
Date/Time
EDT
Temp
°C
App
Temp
°C
Dew
Point
Rel
Hum
%
Delta-T
°C
Wind Press
QNH
hPa
Press
MSL
hPa
Rain
since 9 am
mm
Dir
 
Spd
km/h
Gust
km/h
Spd
kts
Gust
kts
22/11:42pm 13.0 10.6 11.4 90 0.8 NNW 15 19 8 10 1005.9 1005.9 0.8
22/11:30pm 13.0 10.9 11.2 89 0.9 NNW 13 22 7 12 1005.8 1005.8 0.8
22/11:00pm 12.7 10.8 10.6 87 1.1 NNW 11 20 6 11 1005.6 1005.6 0.8
22/10:30pm 12.9 10.2 10.4 85 1.3 NNW 15 20 8 11 1005.3 1005.3 0.8
22/10:00pm 13.3 10.2 10.3 82 1.6 NNW 17 24 9 13 1005.2 1005.2 0.8
22/09:30pm 13.9 10.3 10.7 81 1.7 NNW 20 24 11 13 1004.5 1004.5 0.8
22/09:00pm 14.2 10.8 11.2 82 1.6 N 20 28 11 15 1004.4 1004.4 0.8
22/08:44pm 14.4 12.0 11.4 82 1.6 NNW 15 20 8 11 1004.3 1004.3 0.8
22/08:30pm 14.4 11.8 11.9 85 1.3 NW 17 24 9 13 1004.2 1004.2 0.8
22/08:22pm 14.3 12.1 12.0 86 1.2 NW 15 19 8 10 1004.3 1004.3 0.8
22/08:00pm 15.2 16.0 12.5 84 1.5 CALM 0 0 0 0 1003.7 1003.7 0.8
22/07:30pm 15.7 16.0 12.3 80 1.9 NW 2 6 1 3 1003.6 1003.6 0.8
22/07:00pm 15.9 14.1 10.9 72 2.7 NW 11 15 6 8 1003.8 1003.8 0.8
22/06:30pm 16.6 14.1 11.1 70 3.0 NW 15 20 8 11 1003.8 1003.8 0.6
22/06:00pm 17.3 14.4 10.9 66 3.5 NNW 17 24 9 13 1003.9 1003.9 0.6
22/05:30pm 16.9 14.4 11.2 69 3.1 N 15 20 8 11 1003.9 1003.9 0.6
22/05:00pm 16.0 13.6 11.4 74 2.5 N 15 22 8 12 1004.0 1004.0 0.6
22/04:30pm 17.5 14.2 9.7 60 4.1 N 17 24 9 13 1004.1 1004.1 0.6
22/04:00pm 16.7 11.7 9.6 63 3.7 N 26 33 14 18 1004.5 1004.5 0.6
22/03:30pm 17.2 10.9 9.1 59 4.2 NNW 32 43 17 23 1005.0 1005.0 0.6
22/03:00pm 17.4 12.2 8.8 57 4.5 N 26 41 14 22 1005.0 1005.0 0.6
22/02:30pm 16.6 12.5 10.0 65 3.5 N 22 32 12 17 1005.2 1005.2 0.6
22/02:00pm 17.0 12.9 10.1 64 3.7 N 22 32 12 17 1005.2 1005.2 0.6
22/01:30pm 16.7 12.8 10.8 68 3.2 N 22 33 12 18 1005.3 1005.3 0.6
22/01:00pm 17.6 13.1 10.0 61 4.0 N 24 35 13 19 1005.6 1005.6 0.2
22/12:30pm 17.5 14.6 11.1 66 3.5 N 17 28 9 15 1005.9 1005.9 0.2
22/12:00pm 16.8 13.6 11.3 70 3.0 N 19 30 10 16 1006.3 1006.3 0.2
22/11:30am 14.0 11.1 11.0 82 1.6 NNE 17 24 9 13 1006.8 1006.8 0.2
22/11:00am 12.3 10.1 10.7 90 0.8 N 13 17 7 9 1007.2 1007.2 0.2
22/10:30am 11.4 8.1 9.7 89 0.9 N 17 24 9 13 1007.5 1007.5 0.2
22/10:00am 11.3 7.9 9.0 86 1.1 N 17 24 9 13 1007.2 1007.2 0.0
22/09:30am 10.8 7.8 9.1 89 0.8 N 15 24 8 13 1007.6 1007.6 0.0
22/09:00am 10.6 7.2 9.2 91 0.7 N 17 24 9 13 1008.0 1008.0 2.2
22/08:30am 9.7 5.8 8.6 93 0.5 NNE 19 30 10 16 1007.6 1007.6 2.0
22/08:00am 9.3 5.6 8.1 92 0.6 NNE 17 24 9 13 1007.9 1007.9 2.0
22/07:30am 9.4 5.2 8.2 92 0.6 N 20 30 11 16 1008.3 1008.3 1.6
22/07:00am 9.5 6.1 7.8 89 0.8 N 15 24 8 13 1008.7 1008.7 0.8
22/06:30am 10.8 5.2 7.1 78 1.8 N 26 41 14 22 1008.5 1008.5 0.0
22/06:17am 11.4 5.3 6.5 72 2.3 N 28 46 15 25 1008.4 1008.4 0.0
22/06:00am 11.4 4.8 5.9 69 2.6 NNW 30 44 16 24 1008.3 1008.3 0.0
22/05:30am 11.7 5.7 5.3 65 2.9 NNW 26 39 14 21 1008.2 1008.2 0.0
22/05:00am 9.4 5.5 3.6 67 2.5 N 13 17 7 9 1008.1 1008.1 0.0
22/04:30am 8.8 5.2 2.8 66 2.5 NNE 11 17 6 9 1007.2 1007.2 0.0
22/04:00am 8.2 4.6 2.9 69 2.2 N 11 15 6 8 1007.2 1007.2 0.0
22/03:30am 8.9 5.7 3.3 68 2.4 N 9 13 5 7 1007.3 1007.3 0.0
22/03:00am 9.5 5.5 2.6 62 2.9 N 13 19 7 10 1007.1 1007.1 0.0
22/02:30am 9.3 5.6 2.2 61 3.0 N 11 17 6 9 1007.3 1007.3 0.0

Other Formats:

Comma delimited format used in spreadsheet applications
http://www.bom.gov.au/fwo/IDT60801/IDT60801.94956.axf

JavaScript Object Notation format (JSON) in row-major order
http://www.bom.gov.au/fwo/IDT60801/IDT60801.94956.json